sensor_id;sensor_type;location;lat;lon;timestamp;pressure;altitude;pressure_sealevel;temperature;humidity
7441;BME280;29616;51.950;8.572;2022-09-24T00:02:17;99794.72;;;12.19;100.00
7441;BME280;29616;51.950;8.572;2022-09-24T00:04:45;99793.03;;;12.18;100.00
7441;BME280;29616;51.950;8.572;2022-09-24T00:07:13;99794.22;;;12.15;100.00
7441;BME280;29616;51.950;8.572;2022-09-24T00:09:41;99794.22;;;12.15;100.00
7441;BME280;29616;51.950;8.572;2022-09-24T00:12:09;99798.84;;;12.15;100.00
7441;BME280;29616;51.950;8.572;2022-09-24T00:14:39;99780.34;;;12.09;100.00
7441;BME280;29616;51.950;8.572;2022-09-24T00:17:07;99787.22;;;12.13;100.00
7441;BME280;29616;51.950;8.572;2022-09-24T00:19:36;99783.28;;;12.15;100.00
7441;BME280;29616;51.950;8.572;2022-09-24T00:22:04;99786.69;;;12.18;100.00
7441;BME280;29616;51.950;8.572;2022-09-24T00:24:32;99790.44;;;12.16;100.00
7441;BME280;29616;51.950;8.572;2022-09-24T00:27:19;99790.09;;;12.20;100.00
7441;BME280;29616;51.950;8.572;2022-09-24T00:29:47;99786.69;;;12.18;100.00
7441;BME280;29616;51.950;8.572;2022-09-24T00:32:15;99789.44;;;12.18;100.00
7441;BME280;29616;51.950;8.572;2022-09-24T00:34:44;99766.50;;;12.10;100.00
7441;BME280;29616;51.950;8.572;2022-09-24T00:37:13;99791.81;;;12.21;100.00
7441;BME280;29616;51.950;8.572;2022-09-24T00:39:41;99791.16;;;12.19;100.00
7441;BME280;29616;51.950;8.572;2022-09-24T00:42:10;99782.41;;;12.15;100.00
7441;BME280;29616;51.950;8.572;2022-09-24T00:44:50;99786.50;;;12.11;100.00
7441;BME280;29616;51.950;8.572;2022-09-24T00:47:33;99770.25;;;12.01;100.00
7441;BME280;29616;51.950;8.572;2022-09-24T00:50:22;99770.78;;;12.05;100.00
7441;BME280;29616;51.950;8.572;2022-09-24T00:52:55;99754.66;;;12.02;100.00
7441;BME280;29616;51.950;8.572;2022-09-24T00:55:26;99764.78;;;12.09;100.00
7441;BME280;29616;51.950;8.572;2022-09-24T00:57:58;99772.31;;;12.15;100.00
7441;BME280;29616;51.950;8.572;2022-09-24T01:00:27;99768.53;;;12.16;100.00
7441;BME280;29616;51.950;8.572;2022-09-24T01:03:00;99766.84;;;12.24;100.00
7441;BME280;29616;51.950;8.572;2022-09-24T01:05:32;99749.00;;;12.20;100.00
7441;BME280;29616;51.950;8.572;2022-09-24T01:08:01;99764.09;;;12.24;100.00
7441;BME280;29616;51.950;8.572;2022-09-24T01:10:47;99751.41;;;12.23;100.00
7441;BME280;29616;51.950;8.572;2022-09-24T01:13:34;99748.34;;;12.18;100.00
7441;BME280;29616;51.950;8.572;2022-09-24T01:16:14;99748.34;;;12.18;100.00
7441;BME280;29616;51.950;8.572;2022-09-24T01:18:51;99758.94;;;12.21;100.00
7441;BME280;29616;51.950;8.572;2022-09-24T01:21:35;99753.47;;;12.21;100.00
7441;BME280;29616;51.950;8.572;2022-09-24T01:27:14;99758.28;;;12.19;100.00
7441;BME280;29616;51.950;8.572;2022-09-24T01:29:58;99752.28;;;12.15;100.00
7441;BME280;29616;51.950;8.572;2022-09-24T01:32:34;99745.59;;;12.01;100.00
7441;BME280;29616;51.950;8.572;2022-09-24T01:35:10;99754.47;;;12.03;100.00
7441;BME280;29616;51.950;8.572;2022-09-24T01:37:43;99760.69;;;12.05;100.00
7441;BME280;29616;51.950;8.572;2022-09-24T01:40:13;99752.09;;;12.00;100.00
7441;BME280;29616;51.950;8.572;2022-09-24T01:42:43;99749.19;;;12.02;100.00
7441;BME280;29616;51.950;8.572;2022-09-24T01:45:15;99737.56;;;11.92;100.00
7441;BME280;29616;51.950;8.572;2022-09-24T01:47:44;99745.78;;;12.00;100.00
7441;BME280;29616;51.950;8.572;2022-09-24T01:50:17;99746.97;;;11.97;100.00
7441;BME280;29616;51.950;8.572;2022-09-24T01:52:51;99745.91;;;11.90;100.00
7441;BME280;29616;51.950;8.572;2022-09-24T01:55:25;99727.09;;;11.79;100.00
7441;BME280;29616;51.950;8.572;2022-09-24T01:57:57;99738.75;;;11.81;100.00
7441;BME280;29616;51.950;8.572;2022-09-24T02:00:27;99734.63;;;11.77;100.00
7441;BME280;29616;51.950;8.572;2022-09-24T02:03:01;99725.53;;;11.69;100.00
7441;BME280;29616;51.950;8.572;2022-09-24T02:05:38;99724.34;;;11.71;100.00
7441;BME280;29616;51.950;8.572;2022-09-24T02:08:13;99725.19;;;11.72;100.00
7441;BME280;29616;51.950;8.572;2022-09-24T02:10:49;99718.84;;;11.71;100.00
7441;BME280;29616;51.950;8.572;2022-09-24T02:13:22;99726.38;;;11.69;100.00
7441;BME280;29616;51.950;8.572;2022-09-24T02:15:54;99706.50;;;11.59;100.00
7441;BME280;29616;51.950;8.572;2022-09-24T02:18:28;99713.31;;;11.55;100.00
7441;BME280;29616;51.950;8.572;2022-09-24T02:21:04;99717.78;;;11.56;100.00
7441;BME280;29616;51.950;8.572;2022-09-24T02:23:37;99717.44;;;11.51;100.00
7441;BME280;29616;51.950;8.572;2022-09-24T02:26:07;99729.25;;;11.51;100.00
7441;BME280;29616;51.950;8.572;2022-09-24T02:28:36;99728.38;;;11.51;100.00
7441;BME280;29616;51.950;8.572;2022-09-24T02:31:08;99731.63;;;11.46;100.00
7441;BME280;29616;51.950;8.572;2022-09-24T02:33:42;99728.38;;;11.43;100.00
7441;BME280;29616;51.950;8.572;2022-09-24T02:36:29;99725.97;;;11.40;100.00
7441;BME280;29616;51.950;8.572;2022-09-24T02:38:57;99721.66;;;11.29;100.00
7441;BME280;29616;51.950;8.572;2022-09-24T02:41:26;99730.91;;;11.36;100.00
7441;BME280;29616;51.950;8.572;2022-09-24T02:43:55;99720.97;;;11.27;100.00
7441;BME280;29616;51.950;8.572;2022-09-24T02:46:25;99715.66;;;11.26;100.00
7441;BME280;29616;51.950;8.572;2022-09-24T02:48:53;99711.03;;;11.26;100.00
7441;BME280;29616;51.950;8.572;2022-09-24T02:51:21;99717.38;;;11.27;100.00
7441;BME280;29616;51.950;8.572;2022-09-24T02:53:49;99712.91;;;11.26;100.00
7441;BME280;29616;51.950;8.572;2022-09-24T02:56:18;99713.97;;;11.25;100.00
7441;BME280;29616;51.950;8.572;2022-09-24T02:58:46;99717.56;;;11.25;100.00
7441;BME280;29616;51.950;8.572;2022-09-24T03:01:14;99709.50;;;11.24;100.00
7441;BME280;29616;51.950;8.572;2022-09-24T03:03:43;99691.88;;;11.18;100.00
7441;BME280;29616;51.950;8.572;2022-09-24T03:06:12;99695.31;;;11.20;100.00
7441;BME280;29616;51.950;8.572;2022-09-24T03:08:40;99694.59;;;11.18;100.00
7441;BME280;29616;51.950;8.572;2022-09-24T03:11:09;99702.16;;;11.24;100.00
7441;BME280;29616;51.950;8.572;2022-09-24T03:13:44;99697.88;;;11.22;100.00
7441;BME280;29616;51.950;8.572;2022-09-24T03:16:12;99698.53;;;11.16;100.00
7441;BME280;29616;51.950;8.572;2022-09-24T03:18:42;99715.28;;;11.13;100.00
7441;BME280;29616;51.950;8.572;2022-09-24T03:21:12;99692.84;;;11.01;100.00
7441;BME280;29616;51.950;8.572;2022-09-24T03:23:41;99707.22;;;11.03;100.00
7441;BME280;29616;51.950;8.572;2022-09-24T03:26:12;99696.28;;;11.03;100.00
7441;BME280;29616;51.950;8.572;2022-09-24T03:28:41;99700.84;;;10.94;100.00
7441;BME280;29616;51.950;8.572;2022-09-24T03:31:10;99693.53;;;11.03;100.00
7441;BME280;29616;51.950;8.572;2022-09-24T03:33:40;99694.03;;;10.99;100.00
7441;BME280;29616;51.950;8.572;2022-09-24T03:36:12;99699.53;;;11.07;100.00
7441;BME280;29616;51.950;8.572;2022-09-24T03:38:43;99696.97;;;11.13;100.00
7441;BME280;29616;51.950;8.572;2022-09-24T03:41:12;99680.72;;;11.04;100.00
7441;BME280;29616;51.950;8.572;2022-09-24T03:43:41;99689.09;;;11.10;100.00
7441;BME280;29616;51.950;8.572;2022-09-24T03:46:11;99674.22;;;11.05;100.00
7441;BME280;29616;51.950;8.572;2022-09-24T03:48:40;99691.50;;;11.13;100.00
7441;BME280;29616;51.950;8.572;2022-09-24T03:51:12;99684.84;;;11.16;100.00
7441;BME280;29616;51.950;8.572;2022-09-24T03:53:40;99678.34;;;11.09;100.00
7441;BME280;29616;51.950;8.572;2022-09-24T03:56:09;99689.84;;;11.20;100.00
7441;BME280;29616;51.950;8.572;2022-09-24T03:58:38;99674.59;;;11.10;100.00
7441;BME280;29616;51.950;8.572;2022-09-24T04:01:09;99686.56;;;11.17;100.00
7441;BME280;29616;51.950;8.572;2022-09-24T04:03:48;99690.00;;;11.19;100.00
7441;BME280;29616;51.950;8.572;2022-09-24T04:06:17;99682.66;;;11.19;100.00
7441;BME280;29616;51.950;8.572;2022-09-24T04:08:52;99693.75;;;11.18;100.00
7441;BME280;29616;51.950;8.572;2022-09-24T04:11:20;99692.06;;;11.17;100.00
7441;BME280;29616;51.950;8.572;2022-09-24T04:13:48;99684.84;;;11.16;100.00
7441;BME280;29616;51.950;8.572;2022-09-24T04:16:17;99682.63;;;11.11;100.00
7441;BME280;29616;51.950;8.572;2022-09-24T04:18:45;99683.84;;;11.17;100.00
7441;BME280;29616;51.950;8.572;2022-09-24T04:21:13;99678.38;;;11.17;100.00
7441;BME280;29616;51.950;8.572;2022-09-24T04:23:43;99673.91;;;11.16;100.00
7441;BME280;29616;51.950;8.572;2022-09-24T04:26:11;99684.84;;;11.16;100.00
7441;BME280;29616;51.950;8.572;2022-09-24T04:28:40;99674.59;;;11.10;100.00
7441;BME280;29616;51.950;8.572;2022-09-24T04:31:08;99674.25;;;11.13;100.00
7441;BME280;29616;51.950;8.572;2022-09-24T04:33:36;99675.63;;;11.17;100.00
7441;BME280;29616;51.950;8.572;2022-09-24T04:36:04;99676.50;;;11.17;100.00
7441;BME280;29616;51.950;8.572;2022-09-24T04:38:32;99674.59;;;11.18;100.00
7441;BME280;29616;51.950;8.572;2022-09-24T04:41:06;99676.31;;;11.19;100.00
7441;BME280;29616;51.950;8.572;2022-09-24T04:43:34;99681.09;;;11.17;100.00
7441;BME280;29616;51.950;8.572;2022-09-24T04:46:03;99669.13;;;11.18;100.00
7441;BME280;29616;51.950;8.572;2022-09-24T04:48:32;99664.69;;;11.17;100.00
7441;BME280;29616;51.950;8.572;2022-09-24T04:51:00;99667.25;;;11.18;100.00
7441;BME280;29616;51.950;8.572;2022-09-24T04:53:29;99666.75;;;11.15;100.00
7441;BME280;29616;51.950;8.572;2022-09-24T04:55:58;99675.28;;;11.12;100.00
7441;BME280;29616;51.950;8.572;2022-09-24T04:58:28;99675.44;;;11.10;100.00
7441;BME280;29616;51.950;8.572;2022-09-24T05:00:56;99673.56;;;11.11;100.00
7441;BME280;29616;51.950;8.572;2022-09-24T05:03:24;99663.63;;;11.02;100.00
7441;BME280;29616;51.950;8.572;2022-09-24T05:05:52;99676.63;;;11.08;100.00
7441;BME280;29616;51.950;8.572;2022-09-24T05:08:21;99682.09;;;11.08;100.00
7441;BME280;29616;51.950;8.572;2022-09-24T05:10:49;99676.81;;;11.06;100.00
7441;BME280;29616;51.950;8.572;2022-09-24T05:13:19;99687.88;;;11.05;100.00
7441;BME280;29616;51.950;8.572;2022-09-24T05:15:48;99679.00;;;11.03;100.00
7441;BME280;29616;51.950;8.572;2022-09-24T05:18:17;99691.66;;;11.04;100.00
7441;BME280;29616;51.950;8.572;2022-09-24T05:20:45;99690.97;;;11.02;100.00
7441;BME280;29616;51.950;8.572;2022-09-24T05:23:13;99687.88;;;10.96;100.00
7441;BME280;29616;51.950;8.572;2022-09-24T05:25:41;99695.09;;;11.06;100.00
7441;BME280;29616;51.950;8.572;2022-09-24T05:28:24;99694.06;;;11.07;100.00
7441;BME280;29616;51.950;8.572;2022-09-24T05:30:57;99705.38;;;11.12;100.00
7441;BME280;29616;51.950;8.572;2022-09-24T05:33:27;99696.13;;;11.13;100.00
7441;BME280;29616;51.950;8.572;2022-09-24T05:35:56;99699.22;;;11.18;100.00
7441;BME280;29616;51.950;8.572;2022-09-24T05:38:25;99700.06;;;11.18;100.00
7441;BME280;29616;51.950;8.572;2022-09-24T05:40:53;99698.38;;;11.17;100.00
7441;BME280;29616;51.950;8.572;2022-09-24T05:43:21;99698.19;;;11.19;100.00
7441;BME280;29616;51.950;8.572;2022-09-24T05:45:57;99704.34;;;11.21;100.00
7441;BME280;29616;51.950;8.572;2022-09-24T05:48:25;99716.00;;;11.23;100.00
7441;BME280;29616;51.950;8.572;2022-09-24T05:50:54;99710.53;;;11.23;100.00
7441;BME280;29616;51.950;8.572;2022-09-24T05:53:22;99719.06;;;11.20;100.00
7441;BME280;29616;51.950;8.572;2022-09-24T05:55:50;99718.75;;;11.23;100.00
7441;BME280;29616;51.950;8.572;2022-09-24T05:58:18;99716.38;;;11.28;100.00
7441;BME280;29616;51.950;8.572;2022-09-24T06:00:46;99719.78;;;11.30;100.00
7441;BME280;29616;51.950;8.572;2022-09-24T06:03:18;99725.44;;;11.28;100.00
7441;BME280;29616;51.950;8.572;2022-09-24T06:05:47;99721.84;;;11.28;100.00
7441;BME280;29616;51.950;8.572;2022-09-24T06:08:17;99717.22;;;11.28;100.00
7441;BME280;29616;51.950;8.572;2022-09-24T06:10:46;99714.97;;;11.24;100.00
7441;BME280;29616;51.950;8.572;2022-09-24T06:13:17;99721.31;;;11.24;100.00
7441;BME280;29616;51.950;8.572;2022-09-24T06:15:46;99708.47;;;11.17;100.00
7441;BME280;29616;51.950;8.572;2022-09-24T06:18:16;99723.34;;;11.22;100.00
7441;BME280;29616;51.950;8.572;2022-09-24T06:20:44;99735.97;;;11.23;100.00
7441;BME280;29616;51.950;8.572;2022-09-24T06:23:12;99729.50;;;11.24;100.00
7441;BME280;29616;51.950;8.572;2022-09-24T06:25:40;99716.16;;;11.21;100.00
7441;BME280;29616;51.950;8.572;2022-09-24T06:28:09;99722.81;;;11.19;100.00
7441;BME280;29616;51.950;8.572;2022-09-24T06:30:38;99724.00;;;11.16;100.00
7441;BME280;29616;51.950;8.572;2022-09-24T06:33:09;99728.81;;;11.22;100.00
7441;BME280;29616;51.950;8.572;2022-09-24T06:35:41;99719.06;;;11.20;100.00
7441;BME280;29616;51.950;8.572;2022-09-24T06:38:11;99730.72;;;11.30;100.00
7441;BME280;29616;51.950;8.572;2022-09-24T06:40:40;99727.16;;;11.37;100.00
7441;BME280;29616;51.950;8.572;2022-09-24T06:43:10;99715.22;;;11.46;100.00
7441;BME280;29616;51.950;8.572;2022-09-24T06:45:40;99735.63;;;11.68;100.00
7441;BME280;29616;51.950;8.572;2022-09-24T06:48:11;99732.22;;;11.82;100.00
7441;BME280;29616;51.950;8.572;2022-09-24T06:50:43;99738.38;;;11.92;100.00
7441;BME280;29616;51.950;8.572;2022-09-24T06:53:13;99727.44;;;12.00;100.00
7441;BME280;29616;51.950;8.572;2022-09-24T06:55:42;99726.22;;;12.19;100.00
7441;BME280;29616;51.950;8.572;2022-09-24T06:58:14;99714.06;;;12.22;100.00
7441;BME280;29616;51.950;8.572;2022-09-24T07:00:51;99717.50;;;12.48;100.00
7441;BME280;29616;51.950;8.572;2022-09-24T07:03:20;99722.75;;;12.65;100.00
7441;BME280;29616;51.950;8.572;2022-09-24T07:05:50;99726.31;;;12.82;100.00
7441;BME280;29616;51.950;8.572;2022-09-24T07:08:18;99725.59;;;12.80;100.00
7441;BME280;29616;51.950;8.572;2022-09-24T07:10:47;99712.44;;;12.67;100.00
7441;BME280;29616;51.950;8.572;2022-09-24T07:13:16;99728.78;;;12.53;100.00
7441;BME280;29616;51.950;8.572;2022-09-24T07:15:44;99724.31;;;12.52;100.00
7441;BME280;29616;51.950;8.572;2022-09-24T07:18:12;99720.53;;;12.61;100.00
7441;BME280;29616;51.950;8.572;2022-09-24T07:20:41;99724.63;;;12.65;100.00
7441;BME280;29616;51.950;8.572;2022-09-24T07:23:11;99721.03;;;12.56;100.00
7441;BME280;29616;51.950;8.572;2022-09-24T07:25:39;99725.31;;;12.59;100.00
7441;BME280;29616;51.950;8.572;2022-09-24T07:28:10;99719.19;;;12.49;100.00
7441;BME280;29616;51.950;8.572;2022-09-24T07:30:39;99735.06;;;12.61;100.00
7441;BME280;29616;51.950;8.572;2022-09-24T07:33:08;99726.84;;;12.69;100.00
7441;BME280;29616;51.950;8.572;2022-09-24T07:35:37;99726.66;;;12.79;100.00
7441;BME280;29616;51.950;8.572;2022-09-24T07:38:10;99727.66;;;12.86;100.00
7441;BME280;29616;51.950;8.572;2022-09-24T07:40:39;99729.50;;;12.94;100.00
7441;BME280;29616;51.950;8.572;2022-09-24T07:43:08;99726.91;;;13.16;100.00
7441;BME280;29616;51.950;8.572;2022-09-24T07:45:41;99730.91;;;13.36;100.00
7441;BME280;29616;51.950;8.572;2022-09-24T07:48:10;99734.22;;;13.55;100.00
7441;BME280;29616;51.950;8.572;2022-09-24T07:50:40;99703.91;;;13.48;100.00
7441;BME280;29616;51.950;8.572;2022-09-24T07:53:11;99734.75;;;13.81;100.00
7441;BME280;29616;51.950;8.572;2022-09-24T07:55:41;99730.25;;;13.88;100.00
7441;BME280;29616;51.950;8.572;2022-09-24T07:58:12;99733.28;;;13.93;100.00
7441;BME280;29616;51.950;8.572;2022-09-24T08:00:41;99726.25;;;14.13;100.00
7441;BME280;29616;51.950;8.572;2022-09-24T08:03:09;99730.25;;;14.33;100.00
7441;BME280;29616;51.950;8.572;2022-09-24T08:05:42;99733.09;;;14.40;100.00
7441;BME280;29616;51.950;8.572;2022-09-24T08:08:12;99732.03;;;14.64;100.00
7441;BME280;29616;51.950;8.572;2022-09-24T08:10:41;99744.53;;;14.81;100.00
7441;BME280;29616;51.950;8.572;2022-09-24T08:13:09;99737.91;;;15.04;100.00
7441;BME280;29616;51.950;8.572;2022-09-24T08:15:38;99742.38;;;15.05;100.00
7441;BME280;29616;51.950;8.572;2022-09-24T08:18:06;99747.47;;;15.23;100.00
7441;BME280;29616;51.950;8.572;2022-09-24T08:20:37;99746.50;;;15.45;100.00
7441;BME280;29616;51.950;8.572;2022-09-24T08:23:08;99739.69;;;15.56;100.00
7441;BME280;29616;51.950;8.572;2022-09-24T08:25:38;99749.25;;;15.60;100.00
7441;BME280;29616;51.950;8.572;2022-09-24T08:28:07;99740.44;;;15.50;100.00
7441;BME280;29616;51.950;8.572;2022-09-24T08:30:37;99738.53;;;15.36;100.00
7441;BME280;29616;51.950;8.572;2022-09-24T08:33:07;99739.84;;;15.54;100.00
7441;BME280;29616;51.950;8.572;2022-09-24T08:35:35;99748.06;;;15.48;100.00
7441;BME280;29616;51.950;8.572;2022-09-24T08:38:06;99743.84;;;15.52;100.00
7441;BME280;29616;51.950;8.572;2022-09-24T08:40:42;99750.09;;;15.75;100.00
7441;BME280;29616;51.950;8.572;2022-09-24T08:43:27;99744.50;;;15.68;100.00
7441;BME280;29616;51.950;8.572;2022-09-24T08:46:10;99752.47;;;15.63;100.00
7441;BME280;29616;51.950;8.572;2022-09-24T08:48:58;99751.91;;;15.68;100.00
7441;BME280;29616;51.950;8.572;2022-09-24T08:51:32;99757.22;;;15.69;100.00
7441;BME280;29616;51.950;8.572;2022-09-24T08:54:06;99751.78;;;15.76;100.00
7441;BME280;29616;51.950;8.572;2022-09-24T08:56:40;99753.56;;;16.05;100.00
7441;BME280;29616;51.950;8.572;2022-09-24T08:59:23;99764.16;;;16.22;100.00
7441;BME280;29616;51.950;8.572;2022-09-24T09:02:04;99762.56;;;15.92;100.00
7441;BME280;29616;51.950;8.572;2022-09-24T09:04:48;99759.72;;;15.64;100.00
7441;BME280;29616;51.950;8.572;2022-09-24T09:07:24;99766.69;;;15.46;100.00
7441;BME280;29616;51.950;8.572;2022-09-24T09:09:58;99774.63;;;15.41;100.00
7441;BME280;29616;51.950;8.572;2022-09-24T09:12:35;99769.56;;;15.44;100.00
7441;BME280;29616;51.950;8.572;2022-09-24T09:15:09;99770.25;;;15.61;100.00
7441;BME280;29616;51.950;8.572;2022-09-24T09:17:42;99757.16;;;15.84;100.00
7441;BME280;29616;51.950;8.572;2022-09-24T09:20:17;99754.19;;;15.64;100.00
7441;BME280;29616;51.950;8.572;2022-09-24T09:22:48;99765.22;;;15.64;100.00
7441;BME280;29616;51.950;8.572;2022-09-24T09:25:21;99769.94;;;15.70;100.00
7441;BME280;29616;51.950;8.572;2022-09-24T09:27:54;99774.09;;;15.81;100.00
7441;BME280;29616;51.950;8.572;2022-09-24T09:30:25;99765.38;;;15.77;100.00
7441;BME280;29616;51.950;8.572;2022-09-24T09:33:14;99774.03;;;15.74;100.00
7441;BME280;29616;51.950;8.572;2022-09-24T09:35:50;99767.50;;;15.61;100.00
7441;BME280;29616;51.950;8.572;2022-09-24T09:38:28;99776.69;;;15.39;100.00
7441;BME280;29616;51.950;8.572;2022-09-24T09:41:09;99769.69;;;15.22;100.00
7441;BME280;29616;51.950;8.572;2022-09-24T09:43:42;99772.19;;;15.16;100.00
7441;BME280;29616;51.950;8.572;2022-09-24T09:46:14;99770.94;;;15.19;100.00
7441;BME280;29616;51.950;8.572;2022-09-24T09:48:48;99770.19;;;15.10;100.00
7441;BME280;29616;51.950;8.572;2022-09-24T09:51:20;99767.50;;;15.17;100.00
7441;BME280;29616;51.950;8.572;2022-09-24T09:53:57;99772.72;;;15.12;100.00
7441;BME280;29616;51.950;8.572;2022-09-24T09:56:28;99765.81;;;15.16;100.00
7441;BME280;29616;51.950;8.572;2022-09-24T09:59:16;99777.00;;;15.29;100.00
7441;BME280;29616;51.950;8.572;2022-09-24T10:01:46;99770.94;;;15.19;100.00
7441;BME280;29616;51.950;8.572;2022-09-24T10:04:35;99775.09;;;15.30;100.00
7441;BME280;29616;51.950;8.572;2022-09-24T10:07:08;99770.34;;;15.38;100.00
7441;BME280;29616;51.950;8.572;2022-09-24T10:09:38;99771.88;;;15.55;100.00
7441;BME280;29616;51.950;8.572;2022-09-24T10:12:15;99767.59;;;15.53;100.00
7441;BME280;29616;51.950;8.572;2022-09-24T10:14:57;99775.00;;;15.38;100.00
7441;BME280;29616;51.950;8.572;2022-09-24T10:17:31;99776.31;;;15.42;100.00
7441;BME280;29616;51.950;8.572;2022-09-24T10:20:06;99776.47;;;15.48;100.00
7441;BME280;29616;51.950;8.572;2022-09-24T10:22:36;99776.91;;;15.52;100.00
7441;BME280;29616;51.950;8.572;2022-09-24T10:25:16;99771.50;;;15.58;100.00
7441;BME280;29616;51.950;8.572;2022-09-24T10:27:46;99775.09;;;15.44;100.00
7441;BME280;29616;51.950;8.572;2022-09-24T10:30:16;99771.47;;;15.44;100.00
7441;BME280;29616;51.950;8.572;2022-09-24T10:33:03;99773.94;;;15.39;100.00
7441;BME280;29616;51.950;8.572;2022-09-24T10:35:36;99767.22;;;15.56;100.00
7441;BME280;29616;51.950;8.572;2022-09-24T10:38:16;99770.41;;;15.74;100.00
7441;BME280;29616;51.950;8.572;2022-09-24T10:40:45;99776.44;;;16.20;100.00
7441;BME280;29616;51.950;8.572;2022-09-24T10:43:19;99765.97;;;16.15;100.00
7441;BME280;29616;51.950;8.572;2022-09-24T10:46:07;99772.81;;;16.41;100.00
7441;BME280;29616;51.950;8.572;2022-09-24T10:48:43;99758.81;;;16.21;100.00
7441;BME280;29616;51.950;8.572;2022-09-24T10:51:26;99767.69;;;16.59;100.00
7441;BME280;29616;51.950;8.572;2022-09-24T10:54:13;99759.34;;;16.52;100.00
7441;BME280;29616;51.950;8.572;2022-09-24T10:56:49;99770.00;;;16.76;100.00
7441;BME280;29616;51.950;8.572;2022-09-24T10:59:37;99765.16;;;16.57;100.00
7441;BME280;29616;51.950;8.572;2022-09-24T11:05:34;99767.16;;;16.70;100.00
7441;BME280;29616;51.950;8.572;2022-09-24T11:08:16;99758.38;;;16.87;100.00
7441;BME280;29616;51.950;8.572;2022-09-24T11:11:08;99753.16;;;16.99;100.00
7441;BME280;29616;51.950;8.572;2022-09-24T11:13:49;99764.19;;;17.33;100.00
7441;BME280;29616;51.950;8.572;2022-09-24T11:16:59;99763.44;;;17.52;100.00
7441;BME280;29616;51.950;8.572;2022-09-24T11:19:53;99763.97;;;17.76;100.00
7441;BME280;29616;51.950;8.572;2022-09-24T11:22:36;99756.00;;;18.13;100.00
7441;BME280;29616;51.950;8.572;2022-09-24T11:25:31;99759.84;;;18.26;100.00
7441;BME280;29616;51.950;8.572;2022-09-24T11:28:19;99745.84;;;18.40;100.00
7441;BME280;29616;51.950;8.572;2022-09-24T11:30:59;99751.41;;;18.47;100.00
7441;BME280;29616;51.950;8.572;2022-09-24T11:33:45;99746.25;;;18.17;100.00
7441;BME280;29616;51.950;8.572;2022-09-24T11:36:30;99755.78;;;18.08;100.00
7441;BME280;29616;51.950;8.572;2022-09-24T11:39:25;99745.63;;;18.22;100.00
7441;BME280;29616;51.950;8.572;2022-09-24T11:42:05;99746.16;;;17.91;100.00
7441;BME280;29616;51.950;8.572;2022-09-24T11:45:12;99746.84;;;18.00;100.00
7441;BME280;29616;51.950;8.572;2022-09-24T11:48:01;99749.94;;;17.64;100.00
7441;BME280;29616;51.950;8.572;2022-09-24T11:50:46;99753.38;;;17.86;100.00
7441;BME280;29616;51.950;8.572;2022-09-24T11:53:25;99738.88;;;17.64;100.00
7441;BME280;29616;51.950;8.572;2022-09-24T11:56:06;99741.28;;;17.39;100.00
7441;BME280;29616;51.950;8.572;2022-09-24T11:58:43;99735.84;;;17.18;100.00
7441;BME280;29616;51.950;8.572;2022-09-24T12:01:17;99745.75;;;17.06;100.00
7441;BME280;29616;51.950;8.572;2022-09-24T12:03:55;99752.63;;;16.55;100.00
7441;BME280;29616;51.950;8.572;2022-09-24T12:06:30;99739.25;;;16.37;100.00
7441;BME280;29616;51.950;8.572;2022-09-24T12:09:06;99749.78;;;16.27;100.00
7441;BME280;29616;51.950;8.572;2022-09-24T12:11:46;99750.56;;;16.21;100.00
7441;BME280;29616;51.950;8.572;2022-09-24T12:14:20;99748.41;;;16.16;100.00
7441;BME280;29616;51.950;8.572;2022-09-24T12:17:01;99750.75;;;16.19;100.00
7441;BME280;29616;51.950;8.572;2022-09-24T12:19:37;99736.91;;;16.13;100.00
7441;BME280;29616;51.950;8.572;2022-09-24T12:22:09;99740.63;;;16.26;100.00
7441;BME280;29616;51.950;8.572;2022-09-24T12:24:43;99744.38;;;16.19;100.00
7441;BME280;29616;51.950;8.572;2022-09-24T12:27:18;99750.50;;;16.14;100.00
7441;BME280;29616;51.950;8.572;2022-09-24T12:30:04;99743.22;;;16.07;100.00
7441;BME280;29616;51.950;8.572;2022-09-24T12:32:56;99744.47;;;16.04;100.00
7441;BME280;29616;51.950;8.572;2022-09-24T12:35:38;99740.84;;;16.04;100.00
7441;BME280;29616;51.950;8.572;2022-09-24T12:38:13;99743.63;;;16.04;100.00
7441;BME280;29616;51.950;8.572;2022-09-24T12:41:15;99742.53;;;15.84;100.00
7441;BME280;29616;51.950;8.572;2022-09-24T12:43:51;99751.22;;;15.81;100.00
7441;BME280;29616;51.950;8.572;2022-09-24T12:46:24;99739.31;;;15.59;100.00
7441;BME280;29616;51.950;8.572;2022-09-24T12:48:54;99762.47;;;15.21;100.00
7441;BME280;29616;51.950;8.572;2022-09-24T12:51:23;99764.38;;;15.05;100.00
7441;BME280;29616;51.950;8.572;2022-09-24T12:54:07;99779.69;;;14.56;100.00
7441;BME280;29616;51.950;8.572;2022-09-24T12:56:42;99780.91;;;14.53;100.00
7441;BME280;29616;51.950;8.572;2022-09-24T12:59:25;99770.28;;;14.50;100.00
7441;BME280;29616;51.950;8.572;2022-09-24T13:01:53;99754.03;;;14.41;100.00
7441;BME280;29616;51.950;8.572;2022-09-24T13:04:27;99771.44;;;14.56;100.00
7441;BME280;29616;51.950;8.572;2022-09-24T13:06:55;99755.22;;;14.61;100.00
7441;BME280;29616;51.950;8.572;2022-09-24T13:09:34;99734.84;;;14.55;100.00
7441;BME280;29616;51.950;8.572;2022-09-24T13:12:18;99739.94;;;14.58;100.00
7441;BME280;29616;51.950;8.572;2022-09-24T13:14:54;99740.34;;;14.55;100.00
7441;BME280;29616;51.950;8.572;2022-09-24T13:17:24;99747.66;;;14.63;100.00
7441;BME280;29616;51.950;8.572;2022-09-24T13:19:57;99730.22;;;14.71;100.00
7441;BME280;29616;51.950;8.572;2022-09-24T13:22:28;99735.44;;;14.80;100.00
7441;BME280;29616;51.950;8.572;2022-09-24T13:25:20;99735.53;;;14.87;100.00
7441;BME280;29616;51.950;8.572;2022-09-24T13:28:01;99748.06;;;14.89;100.00
7441;BME280;29616;51.950;8.572;2022-09-24T13:30:37;99742.34;;;14.91;100.00
7441;BME280;29616;51.950;8.572;2022-09-24T13:33:19;99739.97;;;14.88;100.00
7441;BME280;29616;51.950;8.572;2022-09-24T13:36:09;99730.13;;;14.79;100.00
7441;BME280;29616;51.950;8.572;2022-09-24T13:38:44;99737.91;;;14.90;100.00
7441;BME280;29616;51.950;8.572;2022-09-24T13:41:28;99734.66;;;15.01;100.00